EXS35AJ EGBB-LGSK
Flight info
| Callsign | EXS35AJ |
|---|---|
| Flight time | N/A |
| Altitude | 37000 |
| Route | ADMEX Y321 EMKUK UL612 COWLY Q70 BIG UL9 KONAN DCT KOK DCT RITAX DCT KRH DCT UTABA DCT MOMUK DCT GEDSO DCT VEKEN DCT NAVSU DCT SOLGU DCT GILUK DCT RUDAR DCT OSLUD DCT MEDUX UM867 KOGAT/N0386F290 DCT ERANA UL737 TSL UL617 IBIDI IBIDI1C |
| Aircraft | A21N/M-SDE2E3FGHIJ1J3J4J5M1P2RWXYZ/LB1D1 |
Departure
| Time | N/A |
|---|---|
| Airport | Birmingham Airport (EGBB) |
Arrival
| Time | 2026-05-06 17:06 |
|---|---|
| Airport | Skiathos Island National Airport (LGSK) |
| Time | Latitude | Longitude | Altitude | Speed | Heading |
|---|---|---|---|---|---|
| 2026-05-06 14:25 | 51.11864 | 2.22405 | 34952 ft | 459 kts | 96° |
| 2026-05-06 14:26 | 51.11317 | 2.32548 | 34939 ft | 460 kts | 96° |
| 2026-05-06 14:26 | 51.10752 | 2.42597 | 34938 ft | 459 kts | 96° |
| 2026-05-06 14:27 | 51.10174 | 2.52697 | 34933 ft | 458 kts | 96° |
| 2026-05-06 14:27 | 51.09535 | 2.62796 | 34931 ft | 457 kts | 101° |
| 2026-05-06 14:28 | 51.08699 | 2.67672 | 34929 ft | 457 kts | 113° |
| 2026-05-06 14:28 | 51.07395 | 2.72287 | 34935 ft | 457 kts | 117° |
| 2026-05-06 14:28 | 51.04595 | 2.81298 | 34934 ft | 454 kts | 117° |
| 2026-05-06 14:29 | 51.01836 | 2.90257 | 34931 ft | 454 kts | 117° |
| 2026-05-06 14:29 | 50.99081 | 2.99265 | 34930 ft | 453 kts | 117° |
| 2026-05-06 14:30 | 50.96318 | 3.08270 | 34921 ft | 454 kts | 117° |
| 2026-05-06 14:30 | 50.93551 | 3.17268 | 34918 ft | 453 kts | 117° |
| 2026-05-06 14:31 | 50.90774 | 3.26240 | 34902 ft | 454 kts | 118° |
| 2026-05-06 14:31 | 50.87998 | 3.35200 | 34902 ft | 451 kts | 117° |
| 2026-05-06 14:32 | 50.85215 | 3.44116 | 34893 ft | 452 kts | 118° |
| 2026-05-06 14:32 | 50.82430 | 3.53007 | 34891 ft | 451 kts | 118° |
| 2026-05-06 14:33 | 50.79641 | 3.61907 | 34888 ft | 452 kts | 118° |
| 2026-05-06 14:33 | 50.76844 | 3.70787 | 34886 ft | 452 kts | 118° |
| 2026-05-06 14:34 | 50.74039 | 3.79674 | 34881 ft | 451 kts | 118° |
| 2026-05-06 14:34 | 50.71234 | 3.88524 | 34884 ft | 451 kts | 118° |
| 2026-05-06 14:35 | 50.68441 | 3.97305 | 34879 ft | 452 kts | 118° |
| 2026-05-06 14:35 | 50.65610 | 4.06158 | 34881 ft | 452 kts | 118° |
| 2026-05-06 14:36 | 50.62778 | 4.14987 | 34873 ft | 452 kts | 118° |
| 2026-05-06 14:36 | 50.59932 | 4.23804 | 34873 ft | 451 kts | 118° |
| 2026-05-06 14:37 | 50.57085 | 4.32617 | 34875 ft | 451 kts | 118° |
| 2026-05-06 14:37 | 50.54236 | 4.41416 | 34875 ft | 451 kts | 118° |
| 2026-05-06 14:38 | 50.51381 | 4.50196 | 34875 ft | 451 kts | 118° |
| 2026-05-06 14:38 | 50.48517 | 4.58961 | 34879 ft | 451 kts | 119° |
| 2026-05-06 14:39 | 50.45654 | 4.67711 | 34883 ft | 449 kts | 119° |
| 2026-05-06 14:39 | 50.42792 | 4.76425 | 34867 ft | 449 kts | 119° |
| 2026-05-06 14:40 | 50.39947 | 4.85057 | 34873 ft | 449 kts | 119° |
| 2026-05-06 14:40 | 50.37077 | 4.93744 | 34869 ft | 449 kts | 119° |
| 2026-05-06 14:41 | 50.34199 | 5.02420 | 34873 ft | 449 kts | 119° |
| 2026-05-06 14:41 | 50.31307 | 5.11104 | 34866 ft | 449 kts | 119° |
| 2026-05-06 14:42 | 50.28405 | 5.19783 | 34863 ft | 451 kts | 119° |
| 2026-05-06 14:42 | 50.25490 | 5.28479 | 34849 ft | 452 kts | 119° |
| 2026-05-06 14:43 | 50.22561 | 5.37169 | 34857 ft | 452 kts | 119° |
| 2026-05-06 14:43 | 50.19630 | 5.45845 | 34859 ft | 452 kts | 120° |
| 2026-05-06 14:44 | 50.16683 | 5.54516 | 34845 ft | 454 kts | 120° |
| 2026-05-06 14:45 | 50.12270 | 5.67511 | 34850 ft | 454 kts | 120° |
| 2026-05-06 14:45 | 50.09309 | 5.76195 | 34833 ft | 453 kts | 120° |
| 2026-05-06 14:46 | 50.06250 | 5.84796 | 34844 ft | 453 kts | 122° |
| 2026-05-06 14:46 | 50.03093 | 5.93285 | 34846 ft | 452 kts | 122° |
| 2026-05-06 14:47 | 49.99952 | 6.01714 | 34832 ft | 451 kts | 123° |
| 2026-05-06 14:47 | 49.96805 | 6.10128 | 34821 ft | 450 kts | 123° |
| 2026-05-06 14:48 | 49.93652 | 6.18532 | 34822 ft | 450 kts | 123° |
| 2026-05-06 14:48 | 49.90511 | 6.26872 | 34812 ft | 450 kts | 123° |
| 2026-05-06 14:49 | 49.87351 | 6.35251 | 34809 ft | 450 kts | 123° |
| 2026-05-06 14:49 | 49.84186 | 6.43608 | 34798 ft | 449 kts | 123° |
| 2026-05-06 14:50 | 49.81014 | 6.51957 | 34799 ft | 449 kts | 123° |
| 2026-05-06 14:50 | 49.77847 | 6.60279 | 34783 ft | 448 kts | 123° |
| 2026-05-06 14:51 | 49.74670 | 6.68590 | 34784 ft | 449 kts | 123° |
| 2026-05-06 14:51 | 49.71488 | 6.76884 | 34773 ft | 448 kts | 123° |
| 2026-05-06 14:52 | 49.68300 | 6.85161 | 34771 ft | 448 kts | 124° |
| 2026-05-06 14:52 | 49.65104 | 6.93439 | 34774 ft | 449 kts | 124° |
| 2026-05-06 14:53 | 49.61906 | 7.01695 | 34775 ft | 449 kts | 124° |
| 2026-05-06 14:53 | 49.58718 | 7.09906 | 34781 ft | 448 kts | 124° |
| 2026-05-06 14:54 | 49.55506 | 7.18154 | 34778 ft | 449 kts | 124° |
| 2026-05-06 14:54 | 49.52290 | 7.26387 | 34774 ft | 449 kts | 124° |
| 2026-05-06 14:55 | 49.49055 | 7.34627 | 34779 ft | 449 kts | 124° |
| 2026-05-06 14:55 | 49.45821 | 7.42850 | 34778 ft | 449 kts | 124° |
| 2026-05-06 14:56 | 49.42582 | 7.51052 | 34770 ft | 449 kts | 124° |
| 2026-05-06 14:56 | 49.39363 | 7.59200 | 34771 ft | 449 kts | 124° |
| 2026-05-06 14:57 | 49.36096 | 7.67422 | 34763 ft | 451 kts | 125° |
| 2026-05-06 14:57 | 49.32825 | 7.75630 | 34766 ft | 451 kts | 125° |
| 2026-05-06 14:58 | 49.29553 | 7.83824 | 34774 ft | 451 kts | 125° |
| 2026-05-06 14:58 | 49.26277 | 7.92006 | 34772 ft | 450 kts | 125° |
| 2026-05-06 14:59 | 49.22988 | 8.00173 | 34754 ft | 451 kts | 125° |
| 2026-05-06 14:59 | 49.19689 | 8.08365 | 34774 ft | 452 kts | 126° |
| 2026-05-06 15:00 | 49.16406 | 8.16493 | 34779 ft | 452 kts | 126° |
| 2026-05-06 15:00 | 49.13091 | 8.24654 | 34786 ft | 452 kts | 126° |
| 2026-05-06 15:01 | 49.09774 | 8.32803 | 34787 ft | 452 kts | 126° |
| 2026-05-06 15:01 | 49.06446 | 8.40941 | 34785 ft | 452 kts | 127° |
| 2026-05-06 15:02 | 49.03118 | 8.49066 | 34787 ft | 451 kts | 126° |
| 2026-05-06 15:02 | 48.99719 | 8.57092 | 34785 ft | 449 kts | 131° |
| 2026-05-06 15:02 | 48.97642 | 8.60582 | 34785 ft | 442 kts | 143° |
| 2026-05-06 15:03 | 48.95258 | 8.63522 | 34789 ft | 440 kts | 147° |
| 2026-05-06 15:03 | 48.90414 | 8.69190 | 34794 ft | 439 kts | 146° |
| 2026-05-06 15:04 | 48.85604 | 8.74938 | 34796 ft | 440 kts | 146° |
| 2026-05-06 15:04 | 48.80818 | 8.80690 | 34783 ft | 436 kts | 147° |
| 2026-05-06 15:05 | 48.76073 | 8.86376 | 34792 ft | 436 kts | 147° |
| 2026-05-06 15:05 | 48.71302 | 8.92086 | 34790 ft | 437 kts | 147° |
| 2026-05-06 15:06 | 48.66526 | 8.97780 | 34789 ft | 437 kts | 147° |
| 2026-05-06 15:06 | 48.61753 | 9.03461 | 34791 ft | 436 kts | 147° |
| 2026-05-06 15:07 | 48.56974 | 9.09135 | 34789 ft | 437 kts | 147° |
| 2026-05-06 15:07 | 48.52192 | 9.14796 | 34780 ft | 437 kts | 147° |
| 2026-05-06 15:08 | 48.47399 | 9.20445 | 34794 ft | 437 kts | 147° |
| 2026-05-06 15:08 | 48.42608 | 9.26091 | 34804 ft | 438 kts | 147° |
| 2026-05-06 15:09 | 48.37846 | 9.31691 | 34812 ft | 437 kts | 147° |
| 2026-05-06 15:09 | 48.33052 | 9.37323 | 34798 ft | 437 kts | 147° |
| 2026-05-06 15:10 | 48.28261 | 9.42928 | 34796 ft | 436 kts | 148° |
| 2026-05-06 15:10 | 48.23533 | 9.48698 | 34760 ft | 439 kts | 145° |
| 2026-05-06 15:11 | 48.18923 | 9.54677 | 34779 ft | 439 kts | 145° |
| 2026-05-06 15:11 | 48.14307 | 9.60656 | 34774 ft | 439 kts | 145° |
| 2026-05-06 15:12 | 48.09688 | 9.66610 | 34785 ft | 439 kts | 145° |
| 2026-05-06 15:12 | 48.05834 | 9.71568 | 34781 ft | 440 kts | 145° |
| 2026-05-06 15:13 | 48.01199 | 9.77519 | 34767 ft | 438 kts | 146° |
| 2026-05-06 15:13 | 47.96561 | 9.83458 | 34762 ft | 439 kts | 146° |
| 2026-05-06 15:14 | 47.91914 | 9.89398 | 34800 ft | 440 kts | 146° |
| 2026-05-06 15:14 | 47.87266 | 9.95327 | 34804 ft | 440 kts | 146° |
| 2026-05-06 15:15 | 47.82962 | 10.01897 | 34806 ft | 454 kts | 130° |
| 2026-05-06 15:15 | 47.79744 | 10.09991 | 34834 ft | 458 kts | 126° |
| 2026-05-06 15:16 | 47.76576 | 10.18197 | 34817 ft | 459 kts | 127° |
| 2026-05-06 15:16 | 47.73338 | 10.26409 | 34842 ft | 460 kts | 127° |
| 2026-05-06 15:17 | 47.70101 | 10.34615 | 34854 ft | 460 kts | 127° |
| 2026-05-06 15:17 | 47.66853 | 10.42805 | 34856 ft | 460 kts | 127° |
| 2026-05-06 15:18 | 47.63600 | 10.50975 | 34848 ft | 460 kts | 127° |
| 2026-05-06 15:18 | 47.60344 | 10.59153 | 34847 ft | 460 kts | 127° |
| 2026-05-06 15:19 | 47.57107 | 10.67262 | 34838 ft | 459 kts | 128° |
| 2026-05-06 15:19 | 47.53819 | 10.75453 | 34809 ft | 460 kts | 128° |
| 2026-05-06 15:20 | 47.50549 | 10.83588 | 34803 ft | 460 kts | 128° |
| 2026-05-06 15:20 | 47.47291 | 10.91660 | 34755 ft | 461 kts | 128° |
| 2026-05-06 15:21 | 47.43989 | 10.99804 | 34759 ft | 462 kts | 128° |
| 2026-05-06 15:21 | 47.40685 | 11.07940 | 34757 ft | 462 kts | 128° |
| 2026-05-06 15:22 | 47.37381 | 11.16055 | 34743 ft | 462 kts | 128° |
| 2026-05-06 15:22 | 47.34064 | 11.24158 | 34723 ft | 460 kts | 128° |
| 2026-05-06 15:23 | 47.30752 | 11.32243 | 34751 ft | 463 kts | 129° |
| 2026-05-06 15:23 | 47.27418 | 11.40348 | 34760 ft | 463 kts | 129° |
| 2026-05-06 15:24 | 47.24071 | 11.48450 | 34754 ft | 463 kts | 129° |
| 2026-05-06 15:24 | 47.20719 | 11.56561 | 34756 ft | 463 kts | 129° |
| 2026-05-06 15:25 | 47.17378 | 11.64629 | 34726 ft | 464 kts | 129° |
| 2026-05-06 15:25 | 47.14014 | 11.72734 | 34758 ft | 462 kts | 129° |
| 2026-05-06 15:26 | 47.10650 | 11.80790 | 34789 ft | 462 kts | 130° |
| 2026-05-06 15:26 | 47.07413 | 11.88892 | 34774 ft | 467 kts | 124° |
| 2026-05-06 15:27 | 47.04543 | 11.97487 | 34786 ft | 468 kts | 123° |
| 2026-05-06 15:27 | 47.01681 | 12.06040 | 34790 ft | 467 kts | 124° |
| 2026-05-06 15:28 | 46.98801 | 12.14595 | 34803 ft | 467 kts | 124° |
| 2026-05-06 15:28 | 46.95931 | 12.23139 | 34861 ft | 467 kts | 124° |
| 2026-05-06 15:29 | 46.93052 | 12.31671 | 34872 ft | 467 kts | 124° |
| 2026-05-06 15:29 | 46.90158 | 12.40204 | 34858 ft | 469 kts | 124° |
| 2026-05-06 15:30 | 46.87278 | 12.48671 | 34866 ft | 469 kts | 124° |
| 2026-05-06 15:30 | 46.84373 | 12.57189 | 34874 ft | 468 kts | 124° |
| 2026-05-06 15:31 | 46.81459 | 12.65694 | 34866 ft | 468 kts | 124° |
| 2026-05-06 15:31 | 46.78544 | 12.74183 | 34823 ft | 469 kts | 123° |
| 2026-05-06 15:32 | 46.74149 | 12.86933 | 34862 ft | 469 kts | 124° |
| 2026-05-06 15:32 | 46.71215 | 12.95425 | 34865 ft | 468 kts | 124° |
| 2026-05-06 15:33 | 46.68276 | 13.03890 | 34875 ft | 467 kts | 124° |
| 2026-05-06 15:33 | 46.65333 | 13.12335 | 34851 ft | 468 kts | 123° |
| 2026-05-06 15:34 | 46.62382 | 13.20770 | 34866 ft | 468 kts | 123° |
| 2026-05-06 15:34 | 46.59442 | 13.29147 | 34875 ft | 469 kts | 124° |
| 2026-05-06 15:35 | 46.56429 | 13.37533 | 34879 ft | 464 kts | 128° |
| 2026-05-06 15:35 | 46.52616 | 13.44967 | 34863 ft | 458 kts | 135° |
| 2026-05-06 15:36 | 46.48648 | 13.52259 | 34891 ft | 459 kts | 135° |
| 2026-05-06 15:36 | 46.44703 | 13.59540 | 34894 ft | 459 kts | 135° |
| 2026-05-06 15:37 | 46.40762 | 13.66822 | 34888 ft | 460 kts | 135° |
| 2026-05-06 15:37 | 46.36834 | 13.74051 | 34900 ft | 459 kts | 135° |
| 2026-05-06 15:38 | 46.32876 | 13.81312 | 34887 ft | 458 kts | 134° |
| 2026-05-06 15:38 | 46.28923 | 13.88558 | 34916 ft | 458 kts | 135° |
| 2026-05-06 15:39 | 46.24965 | 13.95788 | 34923 ft | 458 kts | 135° |
| 2026-05-06 15:39 | 46.21007 | 14.02997 | 34924 ft | 458 kts | 135° |
| 2026-05-06 15:40 | 46.17042 | 14.10201 | 34911 ft | 458 kts | 134° |
| 2026-05-06 15:40 | 46.13092 | 14.17368 | 34924 ft | 457 kts | 134° |
| 2026-05-06 15:41 | 46.09122 | 14.24537 | 34930 ft | 457 kts | 134° |
| 2026-05-06 15:41 | 46.05153 | 14.31697 | 34931 ft | 459 kts | 134° |
| 2026-05-06 15:42 | 46.01152 | 14.38890 | 34937 ft | 459 kts | 134° |
| 2026-05-06 15:42 | 45.97185 | 14.46003 | 34925 ft | 458 kts | 134° |
| 2026-05-06 15:43 | 45.93189 | 14.53152 | 34929 ft | 458 kts | 134° |
| 2026-05-06 15:43 | 45.89197 | 14.60272 | 34927 ft | 457 kts | 134° |
| 2026-05-06 15:44 | 45.85208 | 14.67386 | 34925 ft | 458 kts | 134° |
| 2026-05-06 15:44 | 45.81200 | 14.74501 | 34924 ft | 460 kts | 134° |
| 2026-05-06 15:45 | 45.77168 | 14.81641 | 34920 ft | 460 kts | 134° |
| 2026-05-06 15:45 | 45.73165 | 14.88715 | 34929 ft | 460 kts | 134° |
| 2026-05-06 15:46 | 45.69125 | 14.95838 | 34920 ft | 460 kts | 134° |
| 2026-05-06 15:46 | 45.65083 | 15.02937 | 34883 ft | 461 kts | 134° |
| 2026-05-06 15:47 | 45.61060 | 15.09993 | 34910 ft | 457 kts | 134° |
| 2026-05-06 15:47 | 45.57033 | 15.17034 | 34914 ft | 457 kts | 134° |
| 2026-05-06 15:48 | 45.53006 | 15.24057 | 34917 ft | 459 kts | 134° |
| 2026-05-06 15:48 | 45.48975 | 15.31075 | 34917 ft | 460 kts | 134° |
| 2026-05-06 15:49 | 45.44912 | 15.38131 | 34913 ft | 460 kts | 134° |
| 2026-05-06 15:49 | 45.40855 | 15.45156 | 34910 ft | 460 kts | 134° |
| 2026-05-06 15:50 | 45.36787 | 15.52183 | 34914 ft | 460 kts | 134° |
| 2026-05-06 15:50 | 45.32717 | 15.59200 | 34919 ft | 460 kts | 134° |
| 2026-05-06 15:51 | 45.28640 | 15.66202 | 34908 ft | 460 kts | 134° |
| 2026-05-06 15:51 | 45.24543 | 15.73228 | 34917 ft | 462 kts | 135° |
| 2026-05-06 15:52 | 45.20437 | 15.80253 | 34921 ft | 463 kts | 135° |
| 2026-05-06 15:52 | 45.16323 | 15.87268 | 34921 ft | 462 kts | 135° |
| 2026-05-06 15:53 | 45.12205 | 15.94278 | 34904 ft | 463 kts | 135° |
| 2026-05-06 15:53 | 45.08098 | 16.01251 | 34920 ft | 461 kts | 135° |
| 2026-05-06 15:54 | 45.03981 | 16.08218 | 34929 ft | 461 kts | 135° |
| 2026-05-06 15:54 | 44.99857 | 16.15188 | 34929 ft | 465 kts | 135° |
| 2026-05-06 15:55 | 44.95694 | 16.22200 | 34940 ft | 466 kts | 135° |
| 2026-05-06 15:55 | 44.91568 | 16.29145 | 34931 ft | 462 kts | 135° |
| 2026-05-06 15:56 | 44.87420 | 16.36092 | 34932 ft | 462 kts | 135° |
| 2026-05-06 15:56 | 44.83269 | 16.43016 | 34933 ft | 462 kts | 135° |
| 2026-05-06 15:57 | 44.79122 | 16.49942 | 34939 ft | 462 kts | 135° |
| 2026-05-06 15:57 | 44.74980 | 16.56844 | 34924 ft | 461 kts | 135° |
| 2026-05-06 15:58 | 44.70808 | 16.63769 | 34929 ft | 466 kts | 135° |
| 2026-05-06 15:58 | 44.66621 | 16.70710 | 34938 ft | 465 kts | 135° |
| 2026-05-06 15:59 | 44.62429 | 16.77637 | 34936 ft | 465 kts | 135° |
| 2026-05-06 15:59 | 44.58230 | 16.84553 | 34938 ft | 463 kts | 135° |
| 2026-05-06 16:00 | 44.54775 | 16.90270 | 34949 ft | 463 kts | 134° |
| 2026-05-06 16:00 | 44.50123 | 16.98505 | 34947 ft | 464 kts | 133° |
| 2026-05-06 16:01 | 44.46761 | 17.04474 | 34950 ft | 470 kts | 133° |
| 2026-05-06 16:01 | 44.42690 | 17.11652 | 34931 ft | 470 kts | 133° |
| 2026-05-06 16:02 | 44.38644 | 17.18793 | 34957 ft | 468 kts | 133° |
| 2026-05-06 16:02 | 44.34631 | 17.25877 | 34968 ft | 467 kts | 133° |
| 2026-05-06 16:03 | 44.30586 | 17.32981 | 34967 ft | 466 kts | 133° |
| 2026-05-06 16:03 | 44.26545 | 17.40064 | 34942 ft | 466 kts | 133° |
| 2026-05-06 16:04 | 44.22513 | 17.47121 | 34958 ft | 465 kts | 133° |
| 2026-05-06 16:04 | 44.18451 | 17.54196 | 34959 ft | 468 kts | 133° |
| 2026-05-06 16:05 | 44.14375 | 17.61284 | 34970 ft | 468 kts | 133° |
| 2026-05-06 16:05 | 44.10329 | 17.68381 | 34950 ft | 469 kts | 132° |
| 2026-05-06 16:06 | 44.06342 | 17.75533 | 34962 ft | 467 kts | 132° |
| 2026-05-06 16:06 | 44.02360 | 17.82667 | 34967 ft | 467 kts | 132° |
| 2026-05-06 16:07 | 43.98368 | 17.89799 | 34967 ft | 467 kts | 132° |
| 2026-05-06 16:07 | 43.94382 | 17.96903 | 34952 ft | 467 kts | 132° |
| 2026-05-06 16:08 | 43.90393 | 18.03989 | 34966 ft | 469 kts | 131° |
| 2026-05-06 16:08 | 43.86379 | 18.11106 | 34965 ft | 468 kts | 131° |
| 2026-05-06 16:09 | 43.82363 | 18.18203 | 34965 ft | 468 kts | 131° |
| 2026-05-06 16:09 | 43.78342 | 18.25284 | 34966 ft | 468 kts | 131° |
| 2026-05-06 16:10 | 43.74307 | 18.32372 | 34963 ft | 469 kts | 131° |
| 2026-05-06 16:10 | 43.70271 | 18.39441 | 34968 ft | 469 kts | 131° |
| 2026-05-06 16:11 | 43.66230 | 18.46514 | 34973 ft | 469 kts | 132° |
| 2026-05-06 16:11 | 43.62182 | 18.53584 | 34973 ft | 470 kts | 131° |
| 2026-05-06 16:12 | 43.58128 | 18.60656 | 34999 ft | 473 kts | 131° |
| 2026-05-06 16:12 | 43.54035 | 18.67764 | 34993 ft | 474 kts | 131° |
| 2026-05-06 16:13 | 43.49930 | 18.74883 | 35006 ft | 473 kts | 131° |
| 2026-05-06 16:13 | 43.45824 | 18.81993 | 34999 ft | 474 kts | 131° |
| 2026-05-06 16:14 | 43.41713 | 18.89075 | 35003 ft | 474 kts | 131° |
| 2026-05-06 16:14 | 43.37591 | 18.96168 | 35015 ft | 475 kts | 131° |
| 2026-05-06 16:15 | 43.33489 | 19.03207 | 35014 ft | 475 kts | 131° |
| 2026-05-06 16:15 | 43.29347 | 19.10291 | 35015 ft | 475 kts | 131° |
| 2026-05-06 16:16 | 43.25210 | 19.17359 | 35013 ft | 475 kts | 131° |
| 2026-05-06 16:16 | 43.21069 | 19.24422 | 35013 ft | 475 kts | 131° |
| 2026-05-06 16:17 | 43.16923 | 19.31462 | 35026 ft | 474 kts | 131° |
| 2026-05-06 16:17 | 43.12779 | 19.38482 | 35029 ft | 474 kts | 131° |
| 2026-05-06 16:18 | 43.08625 | 19.45506 | 35038 ft | 474 kts | 131° |
| 2026-05-06 16:18 | 43.04475 | 19.52509 | 35037 ft | 473 kts | 131° |
| 2026-05-06 16:19 | 43.00320 | 19.59510 | 35033 ft | 474 kts | 131° |
| 2026-05-06 16:19 | 42.96186 | 19.66446 | 35041 ft | 474 kts | 132° |
| 2026-05-06 16:20 | 42.92025 | 19.73419 | 35043 ft | 473 kts | 132° |
| 2026-05-06 16:20 | 42.87858 | 19.80379 | 35034 ft | 473 kts | 132° |
| 2026-05-06 16:21 | 42.83682 | 19.87345 | 35043 ft | 475 kts | 132° |
| 2026-05-06 16:21 | 42.79493 | 19.94317 | 35039 ft | 475 kts | 132° |
| 2026-05-06 16:22 | 42.75302 | 20.01272 | 35044 ft | 475 kts | 132° |
| 2026-05-06 16:22 | 42.71107 | 20.08214 | 35037 ft | 475 kts | 132° |
| 2026-05-06 16:23 | 42.66909 | 20.15145 | 35033 ft | 475 kts | 132° |
| 2026-05-06 16:23 | 42.62699 | 20.22077 | 35036 ft | 475 kts | 132° |
| 2026-05-06 16:24 | 42.58517 | 20.28953 | 35025 ft | 475 kts | 132° |
| 2026-05-06 16:24 | 42.54299 | 20.35864 | 35025 ft | 476 kts | 132° |
| 2026-05-06 16:25 | 42.50075 | 20.42774 | 35033 ft | 476 kts | 132° |
| 2026-05-06 16:25 | 42.45853 | 20.49668 | 35020 ft | 475 kts | 132° |
| 2026-05-06 16:26 | 42.41648 | 20.56516 | 35032 ft | 470 kts | 132° |
| 2026-05-06 16:26 | 42.37467 | 20.63301 | 35032 ft | 472 kts | 132° |
| 2026-05-06 16:27 | 42.33232 | 20.70165 | 35035 ft | 476 kts | 132° |
| 2026-05-06 16:27 | 42.28981 | 20.77039 | 35033 ft | 477 kts | 132° |
| 2026-05-06 16:28 | 42.24721 | 20.83914 | 35032 ft | 478 kts | 132° |
| 2026-05-06 16:28 | 42.20446 | 20.90798 | 35016 ft | 477 kts | 132° |
| 2026-05-06 16:29 | 42.16189 | 20.97634 | 35020 ft | 474 kts | 132° |
| 2026-05-06 16:29 | 42.11992 | 21.04349 | 35001 ft | 468 kts | 133° |
| 2026-05-06 16:30 | 42.08116 | 21.09575 | 35004 ft | 474 kts | 139° |
| 2026-05-06 16:30 | 42.02503 | 21.16669 | 34988 ft | 477 kts | 139° |
| 2026-05-06 16:31 | 41.97674 | 21.22789 | 34990 ft | 477 kts | 139° |
| 2026-05-06 16:31 | 41.92834 | 21.28906 | 34981 ft | 477 kts | 139° |
| 2026-05-06 16:32 | 41.88002 | 21.35008 | 34982 ft | 476 kts | 139° |
| 2026-05-06 16:32 | 41.83170 | 21.41092 | 34975 ft | 476 kts | 139° |
| 2026-05-06 16:33 | 41.78335 | 21.47165 | 34972 ft | 476 kts | 139° |
| 2026-05-06 16:34 | 41.71085 | 21.56256 | 34975 ft | 476 kts | 139° |
| 2026-05-06 16:34 | 41.66284 | 21.62254 | 34979 ft | 475 kts | 139° |
| 2026-05-06 16:35 | 41.61445 | 21.68288 | 34983 ft | 475 kts | 139° |
| 2026-05-06 16:35 | 41.56612 | 21.74294 | 34985 ft | 474 kts | 139° |
| 2026-05-06 16:36 | 41.51787 | 21.80295 | 34982 ft | 471 kts | 139° |
| 2026-05-06 16:36 | 41.46951 | 21.86287 | 34989 ft | 479 kts | 139° |
| 2026-05-06 16:37 | 41.42059 | 21.92335 | 35000 ft | 480 kts | 139° |
| 2026-05-06 16:37 | 41.37185 | 21.98346 | 34996 ft | 480 kts | 139° |
| 2026-05-06 16:38 | 41.32279 | 22.04393 | 35004 ft | 480 kts | 139° |
| 2026-05-06 16:38 | 41.27372 | 22.10423 | 34999 ft | 479 kts | 139° |
| 2026-05-06 16:39 | 41.22480 | 22.16411 | 35011 ft | 477 kts | 139° |
| 2026-05-06 16:39 | 41.17626 | 22.22353 | 35000 ft | 471 kts | 139° |
| 2026-05-06 16:40 | 41.12583 | 22.27987 | 35014 ft | 478 kts | 143° |
| 2026-05-06 16:40 | 41.07405 | 22.33548 | 35008 ft | 479 kts | 143° |
| 2026-05-06 16:41 | 41.02233 | 22.39102 | 35019 ft | 478 kts | 142° |
| 2026-05-06 16:41 | 40.97072 | 22.44638 | 34999 ft | 478 kts | 142° |
| 2026-05-06 16:42 | 40.91896 | 22.50172 | 34999 ft | 477 kts | 142° |
| 2026-05-06 16:42 | 40.86786 | 22.55629 | 35008 ft | 472 kts | 142° |
| 2026-05-06 16:43 | 40.81675 | 22.61076 | 35005 ft | 476 kts | 142° |
| 2026-05-06 16:43 | 40.76485 | 22.66586 | 35012 ft | 480 kts | 142° |
| 2026-05-06 16:44 | 40.71284 | 22.72101 | 35016 ft | 479 kts | 142° |
| 2026-05-06 16:44 | 40.66078 | 22.77616 | 35021 ft | 480 kts | 142° |
| 2026-05-06 16:45 | 40.60924 | 22.83061 | 34109 ft | 479 kts | 142° |
| 2026-05-06 16:45 | 40.58289 | 22.85837 | 32782 ft | 490 kts | 142° |
| 2026-05-06 16:45 | 40.55608 | 22.88659 | 31658 ft | 496 kts | 142° |
| 2026-05-06 16:45 | 40.52903 | 22.91504 | 30660 ft | 499 kts | 142° |
| 2026-05-06 16:46 | 40.50187 | 22.94364 | 29722 ft | 500 kts | 142° |
| 2026-05-06 16:46 | 40.47462 | 22.97191 | 28790 ft | 498 kts | 144° |
| 2026-05-06 16:46 | 40.44531 | 22.99581 | 27950 ft | 495 kts | 155° |
| 2026-05-06 16:46 | 40.41378 | 23.01335 | 27115 ft | 492 kts | 161° |
| 2026-05-06 16:47 | 40.38161 | 23.02925 | 26227 ft | 494 kts | 162° |
| 2026-05-06 16:47 | 40.34935 | 23.04496 | 25326 ft | 496 kts | 162° |
| 2026-05-06 16:47 | 40.31699 | 23.06087 | 24494 ft | 496 kts | 161° |
| 2026-05-06 16:47 | 40.28472 | 23.07685 | 23776 ft | 494 kts | 161° |
| 2026-05-06 16:48 | 40.25263 | 23.09280 | 23058 ft | 496 kts | 161° |
| 2026-05-06 16:48 | 40.22025 | 23.10886 | 22424 ft | 496 kts | 161° |
| 2026-05-06 16:48 | 40.19881 | 23.11949 | 22119 ft | 497 kts | 161° |
| 2026-05-06 16:48 | 40.16657 | 23.13543 | 21754 ft | 494 kts | 161° |
| 2026-05-06 16:49 | 40.13456 | 23.15126 | 21431 ft | 491 kts | 161° |
| 2026-05-06 16:49 | 40.10284 | 23.16695 | 20944 ft | 483 kts | 161° |
| 2026-05-06 16:49 | 40.07155 | 23.18234 | 20360 ft | 477 kts | 161° |
| 2026-05-06 16:49 | 40.04060 | 23.19756 | 19760 ft | 472 kts | 161° |
| 2026-05-06 16:50 | 40.01037 | 23.21243 | 19174 ft | 467 kts | 161° |
| 2026-05-06 16:50 | 39.98013 | 23.22734 | 18586 ft | 462 kts | 161° |
| 2026-05-06 16:50 | 39.95015 | 23.24209 | 17890 ft | 458 kts | 161° |
| 2026-05-06 16:50 | 39.92038 | 23.25673 | 17223 ft | 455 kts | 160° |
| 2026-05-06 16:51 | 39.89097 | 23.27118 | 16646 ft | 449 kts | 160° |
| 2026-05-06 16:51 | 39.86187 | 23.28548 | 16116 ft | 444 kts | 160° |
| 2026-05-06 16:51 | 39.83321 | 23.29954 | 15600 ft | 438 kts | 160° |
| 2026-05-06 16:51 | 39.80472 | 23.31349 | 15078 ft | 435 kts | 160° |
| 2026-05-06 16:52 | 39.77660 | 23.32723 | 14630 ft | 429 kts | 160° |
| 2026-05-06 16:52 | 39.74890 | 23.34074 | 14231 ft | 422 kts | 160° |
| 2026-05-06 16:52 | 39.72159 | 23.35406 | 13843 ft | 415 kts | 160° |
| 2026-05-06 16:52 | 39.69472 | 23.36718 | 13376 ft | 410 kts | 160° |
| 2026-05-06 16:53 | 39.66809 | 23.38013 | 12797 ft | 406 kts | 160° |
| 2026-05-06 16:53 | 39.64165 | 23.39298 | 12117 ft | 404 kts | 160° |
| 2026-05-06 16:53 | 39.61569 | 23.40560 | 11756 ft | 391 kts | 160° |
| 2026-05-06 16:53 | 39.59068 | 23.41775 | 11504 ft | 376 kts | 160° |
| 2026-05-06 16:54 | 39.56662 | 23.42944 | 11308 ft | 362 kts | 160° |
| 2026-05-06 16:54 | 39.54345 | 23.44067 | 11127 ft | 349 kts | 160° |
| 2026-05-06 16:54 | 39.52114 | 23.45150 | 10969 ft | 336 kts | 160° |
| 2026-05-06 16:54 | 39.49994 | 23.46177 | 10814 ft | 324 kts | 160° |
| 2026-05-06 16:55 | 39.47922 | 23.47179 | 10676 ft | 312 kts | 160° |
| 2026-05-06 16:55 | 39.45924 | 23.48146 | 10484 ft | 303 kts | 160° |
| 2026-05-06 16:55 | 39.43952 | 23.49100 | 10102 ft | 302 kts | 160° |
| 2026-05-06 16:55 | 39.41985 | 23.50050 | 9721 ft | 299 kts | 160° |
| 2026-05-06 16:56 | 39.40041 | 23.50989 | 9329 ft | 298 kts | 160° |
| 2026-05-06 16:56 | 39.38106 | 23.51925 | 8955 ft | 295 kts | 160° |
| 2026-05-06 16:56 | 39.36187 | 23.52853 | 8557 ft | 294 kts | 160° |
| 2026-05-06 16:56 | 39.34282 | 23.53776 | 8228 ft | 290 kts | 160° |
| 2026-05-06 16:57 | 39.32404 | 23.54683 | 7904 ft | 286 kts | 160° |
| 2026-05-06 16:57 | 39.30543 | 23.55581 | 7555 ft | 284 kts | 161° |
| 2026-05-06 16:57 | 39.28699 | 23.56471 | 7210 ft | 282 kts | 161° |
| 2026-05-06 16:57 | 39.26870 | 23.57353 | 6863 ft | 280 kts | 161° |
| 2026-05-06 16:58 | 39.25054 | 23.58228 | 6437 ft | 277 kts | 161° |
| 2026-05-06 16:58 | 39.23254 | 23.59095 | 5951 ft | 275 kts | 161° |
| 2026-05-06 16:58 | 39.21472 | 23.59952 | 5469 ft | 272 kts | 161° |
| 2026-05-06 16:58 | 39.19706 | 23.60792 | 4943 ft | 269 kts | 163° |
| 2026-05-06 16:59 | 39.17911 | 23.61177 | 4402 ft | 264 kts | 185° |
| 2026-05-06 16:59 | 39.16167 | 23.60534 | 4101 ft | 259 kts | 206° |
| 2026-05-06 16:59 | 39.14606 | 23.59487 | 4002 ft | 246 kts | 208° |
| 2026-05-06 16:59 | 39.13143 | 23.58480 | 3976 ft | 232 kts | 208° |
| 2026-05-06 17:00 | 39.11765 | 23.57541 | 3944 ft | 216 kts | 208° |
| 2026-05-06 17:00 | 39.10463 | 23.56664 | 3757 ft | 207 kts | 208° |
| 2026-05-06 17:00 | 39.09194 | 23.55817 | 3415 ft | 203 kts | 207° |
| 2026-05-06 17:00 | 39.07976 | 23.55008 | 3260 ft | 191 kts | 206° |
| 2026-05-06 17:01 | 39.06815 | 23.54245 | 3024 ft | 185 kts | 206° |
| 2026-05-06 17:01 | 39.05697 | 23.53515 | 2821 ft | 175 kts | 206° |
| 2026-05-06 17:01 | 39.04643 | 23.52833 | 2629 ft | 165 kts | 206° |
| 2026-05-06 17:01 | 39.03630 | 23.52168 | 2321 ft | 163 kts | 208° |
| 2026-05-06 17:02 | 39.02890 | 23.51089 | 2019 ft | 167 kts | 249° |
| 2026-05-06 17:02 | 39.02930 | 23.49613 | 1700 ft | 171 kts | 294° |
| 2026-05-06 17:02 | 39.03754 | 23.48533 | 1549 ft | 172 kts | 333° |
| 2026-05-06 17:02 | 39.04845 | 23.47935 | 1548 ft | 167 kts | 339° |
| 2026-05-06 17:03 | 39.05872 | 23.47468 | 1574 ft | 149 kts | 344° |
| 2026-05-06 17:03 | 39.06874 | 23.47117 | 1533 ft | 147 kts | 347° |
| 2026-05-06 17:03 | 39.07859 | 23.46828 | 1493 ft | 147 kts | 349° |
| 2026-05-06 17:03 | 39.08862 | 23.46605 | 1451 ft | 146 kts | 357° |
| 2026-05-06 17:04 | 39.09854 | 23.46765 | 1329 ft | 144 kts | 17° |
| 2026-05-06 17:04 | 39.10800 | 23.47166 | 1190 ft | 142 kts | 22° |
| 2026-05-06 17:04 | 39.11716 | 23.47624 | 1040 ft | 141 kts | 23° |
| 2026-05-06 17:04 | 39.12631 | 23.48080 | 849 ft | 141 kts | 22° |
| 2026-05-06 17:05 | 39.13560 | 23.48512 | 705 ft | 142 kts | 20° |
| 2026-05-06 17:05 | 39.14500 | 23.48922 | 548 ft | 142 kts | 20° |
| 2026-05-06 17:05 | 39.15427 | 23.49350 | 350 ft | 142 kts | 19° |
| 2026-05-06 17:05 | 39.16361 | 23.49770 | 179 ft | 142 kts | 19° |
| 2026-05-06 17:06 | 39.17295 | 23.50184 | 35 ft | 138 kts | 19° |
| 2026-05-06 17:06 | 39.17986 | 23.50490 | 48 ft | 62 kts | 19° |
| 2026-05-06 17:06 | 39.18260 | 23.50612 | 62 ft | 38 kts | 19° |
| 2026-05-06 17:06 | 39.18425 | 23.50685 | 66 ft | 16 kts | 19° |
| 2026-05-06 17:07 | 39.18480 | 23.50701 | 63 ft | 5 kts | 347° |
| 2026-05-06 17:07 | 39.18504 | 23.50704 | 62 ft | 3 kts | 64° |
| 2026-05-06 17:07 | 39.18492 | 23.50715 | 63 ft | 3 kts | 182° |
| 2026-05-06 17:07 | 39.18462 | 23.50703 | 63 ft | 6 kts | 200° |
| 2026-05-06 17:08 | 39.18419 | 23.50683 | 66 ft | 8 kts | 200° |
| 2026-05-06 17:08 | 39.18361 | 23.50657 | 61 ft | 10 kts | 199° |
| 2026-05-06 17:08 | 39.18283 | 23.50622 | 61 ft | 13 kts | 201° |
| 2026-05-06 17:08 | 39.18188 | 23.50580 | 59 ft | 15 kts | 199° |
| 2026-05-06 17:09 | 39.18083 | 23.50534 | 54 ft | 16 kts | 200° |
| 2026-05-06 17:09 | 39.17974 | 23.50484 | 50 ft | 16 kts | 211° |
| 2026-05-06 17:09 | 39.17927 | 23.50390 | 47 ft | 12 kts | 251° |
| 2026-05-06 17:09 | 39.17907 | 23.50344 | 46 ft | 6 kts | 228° |
| 2026-05-06 17:10 | 39.17898 | 23.50290 | 45 ft | 7 kts | 278° |
| 2026-05-06 17:10 | 39.17907 | 23.50248 | 45 ft | 3 kts | 290° |
| 2026-05-06 17:10 | 39.17908 | 23.50245 | 43 ft | 0 kts | 290° |